Terminal Aerodrome Forecast
Issued by NWS

Home | Current Version | Previous Version | Text Only | Print | Product List | Glossary On
Versions: 1 2 3 4 5 6 7 8 9 10 11 12 13 14 15 16 17 18 19 20 21 22 23 24 25
000
FTUS44 KOUN 241130
TAFGAG
TAF
KGAG 241130Z 2412/2512 20017G23KT P6SM SCT250
     FM241500 19023G32KT P6SM SCT070 SCT250
     FM241800 16016KT P6SM SCT040 BKN080
     FM242100 02014KT P6SM SCT040 OVC080
     FM250000 35020G28KT P6SM SCT030 BKN080 PROB30 2500/2503 -SHRA
      BKN030
     FM250500 33017G25KT P6SM BKN030=

USA.gov is the U.S. government's official web portal to all federal, state and local government web resources and services.